Oasis of the Seas — C6XS7 — position and weather

sailwx.info

Track history (hours):
 
Tides and Currents Weather Stations Pressure Air Temp Water Temp Dewpoint Dewpoint Depression Visibility Wind Speed Wind Dir Waves Ship Positions

Oasis of the Seas

Last reported at 2015-May-05 00:00 UTC. Time now 2015-May-05 07:13 UTC.
Position N 20°36' W 068°42'.

Length 360 m; draft 9.4 m.

Type: Passenger vessel. MMSI: 311020600.

Wind from 110 at 26 knots

Waves 2.0 meters (7 feet), 3 second period

Barometer 1016.0 mb
Air temperature 26.7 ° C
Visibility: greater than 10.8 NM
Water temperature 29.5 ° C

Date/timePositionNaut miles runAvg speedWind from/ knotsBaromVisibWave heightAir tempDewpointWater temp
2015-May-05 00:00N 20°36' W 068°42'47219.7 110 / 261016.010.8 2.026.7 29.5
2015-May-04 00:00N 25°06' W 075°42'223 9.4 050 / 251017.010.8 2.523.0 28.0
2015-May-03 00:08N 26°08' W 079°40'814.7
2015-May-02 23:33N 26°07' W 079°49'1414.3
2015-May-02 22:33N 26°06' W 080°05'2 1.6
2015-May-02 21:25N 26°05' W 080°07'0 0.0
2015-May-02 20:25N 26°05' W 080°07'0 0.0
2015-May-02 19:25N 26°05' W 080°07'0 0.0
2015-May-02 18:28N 26°05' W 080°07'0 0.0
2015-May-02 17:28N 26°05' W 080°07'0 0.0
2015-May-02 16:27N 26°05' W 080°07'0 0.0
2015-May-02 15:27N 26°05' W 080°07'0 0.0
2015-May-02 14:27N 26°05' W 080°07'0 0.0
2015-May-02 13:30N 26°05' W 080°07'0 0.0
2015-May-02 12:30N 26°05' W 080°07'0 0.0
2015-May-02 11:27N 26°05' W 080°07'0 0.0
2015-May-02 10:31N 26°05' W 080°07'0 0.1
2015-May-02 09:34N 26°05' W 080°07'9 8.7
2015-May-02 08:33N 25°60' W 079°59'1514.6
2015-May-02 07:33N 25°46' W 079°56'2213.9
2015-May-02 06:00N 25°24' W 079°54'48915.8 050 / 61011.0 5.4 1.024.522.429.0
2015-Apr-30 23:06N 20°30' W 086°59'2 2.6
2015-Apr-30 22:30N 20°29' W 086°59'0 0.0
2015-Apr-30 21:33N 20°29' W 086°59'0 0.0
2015-Apr-30 20:33N 20°29' W 086°59'0 0.0
2015-Apr-30 19:33N 20°29' W 086°59'0 0.0
2015-Apr-30 18:33N 20°29' W 086°59'0 0.0
2015-Apr-30 17:33N 20°29' W 086°59'0 0.0
2015-Apr-30 16:33N 20°29' W 086°59'0 0.0
2015-Apr-30 15:33N 20°29' W 086°59'0 0.0
2015-Apr-30 14:33N 20°29' W 086°59'0 0.0
2015-Apr-30 13:30N 20°29' W 086°59'0 0.0
2015-Apr-30 12:30N 20°29' W 086°59'0 0.2
2015-Apr-30 11:33N 20°29' W 086°59'  
2015-Apr-28 06:00N 19°18' W 075°06'103 3.4 360 / 81011.0 5.4 1.027.127.031.0
2015-Apr-27 00:00N 21°00' W 074°54'40515.8 120 / 131011.127.0 0.527.526.229.5
2015-Apr-25 22:19N 25°50' W 080°02'1215.0
2015-Apr-25 21:33N 26°01' W 080°03'6 5.0
2015-Apr-25 20:24N 26°05' W 080°07'0 0.0
2015-Apr-25 19:27N 26°05' W 080°07'0 0.0
2015-Apr-25 18:27N 26°05' W 080°07'0 0.0
2015-Apr-25 17:27N 26°05' W 080°07'0 0.0
2015-Apr-25 16:27N 26°05' W 080°07'0 0.0
2015-Apr-25 15:30N 26°05' W 080°07'0 0.0
2015-Apr-25 14:30N 26°05' W 080°07'0 0.0
2015-Apr-25 13:33N 26°05' W 080°07'0 0.0
2015-Apr-25 12:33N 26°05' W 080°07'0 0.0
2015-Apr-25 11:33N 26°05' W 080°07'0 0.0
2015-Apr-25 10:33N 26°05' W 080°07'2 2.1
2015-Apr-25 09:33N 26°06' W 080°05'1212.5
2015-Apr-25 08:33N 26°07' W 079°51'1514.8
2015-Apr-25 07:33N 26°09' W 079°35'3120.0
2015-Apr-25 06:00N 26°06' W 079°00'   100 / 91015.0 5.4 1.025.323.529.0
Track history (hours):
 
Tides and Currents Weather Stations Pressure Air Temp Water Temp Dewpoint Dewpoint Depression Visibility Wind Speed Wind Dir Waves Ship Positions

Oasis of the Seas

Last reported at 2015-May-05 00:00 UTC. Time now 2015-May-05 07:13 UTC.
Position N 20°36' W 068°42'.

Length 360 m; draft 9.4 m.

Type: Passenger vessel. MMSI: 311020600.

Wind from 110 at 26 knots

Waves 2.0 meters (7 feet), 3 second period

Barometer 1016.0 mb
Air temperature 26.7 ° C
Visibility: greater than 10.8 NM
Water temperature 29.5 ° C

Date/timePositionNaut miles runAvg speedWind from/ knotsBaromVisibWave heightAir tempDewpointWater temp
2015-May-05 00:00N 20°36' W 068°42'47219.7 110 / 261016.010.8 2.026.7 29.5
2015-May-04 00:00N 25°06' W 075°42'223 9.4 050 / 251017.010.8 2.523.0 28.0
2015-May-03 00:08N 26°08' W 079°40'814.7
2015-May-02 23:33N 26°07' W 079°49'1414.3
2015-May-02 22:33N 26°06' W 080°05'2 1.6
2015-May-02 21:25N 26°05' W 080°07'0 0.0
2015-May-02 20:25N 26°05' W 080°07'0 0.0
2015-May-02 19:25N 26°05' W 080°07'0 0.0
2015-May-02 18:28N 26°05' W 080°07'0 0.0
2015-May-02 17:28N 26°05' W 080°07'0 0.0
2015-May-02 16:27N 26°05' W 080°07'0 0.0
2015-May-02 15:27N 26°05' W 080°07'0 0.0
2015-May-02 14:27N 26°05' W 080°07'0 0.0
2015-May-02 13:30N 26°05' W 080°07'0 0.0
2015-May-02 12:30N 26°05' W 080°07'0 0.0
2015-May-02 11:27N 26°05' W 080°07'0 0.0
2015-May-02 10:31N 26°05' W 080°07'0 0.1
2015-May-02 09:34N 26°05' W 080°07'9 8.7
2015-May-02 08:33N 25°60' W 079°59'1514.6
2015-May-02 07:33N 25°46' W 079°56'2213.9
2015-May-02 06:00N 25°24' W 079°54'48915.8 050 / 61011.0 5.4 1.024.522.429.0
2015-Apr-30 23:06N 20°30' W 086°59'2 2.6
2015-Apr-30 22:30N 20°29' W 086°59'0 0.0
2015-Apr-30 21:33N 20°29' W 086°59'0 0.0
2015-Apr-30 20:33N 20°29' W 086°59'0 0.0
2015-Apr-30 19:33N 20°29' W 086°59'0 0.0
2015-Apr-30 18:33N 20°29' W 086°59'0 0.0
2015-Apr-30 17:33N 20°29' W 086°59'0 0.0
2015-Apr-30 16:33N 20°29' W 086°59'0 0.0
2015-Apr-30 15:33N 20°29' W 086°59'0 0.0
2015-Apr-30 14:33N 20°29' W 086°59'0 0.0
2015-Apr-30 13:30N 20°29' W 086°59'0 0.0
2015-Apr-30 12:30N 20°29' W 086°59'0 0.2
2015-Apr-30 11:33N 20°29' W 086°59'  
2015-Apr-28 06:00N 19°18' W 075°06'103 3.4 360 / 81011.0 5.4 1.027.127.031.0
2015-Apr-27 00:00N 21°00' W 074°54'40515.8 120 / 131011.127.0 0.527.526.229.5
2015-Apr-25 22:19N 25°50' W 080°02'1215.0
2015-Apr-25 21:33N 26°01' W 080°03'6 5.0
2015-Apr-25 20:24N 26°05' W 080°07'0 0.0
2015-Apr-25 19:27N 26°05' W 080°07'0 0.0
2015-Apr-25 18:27N 26°05' W 080°07'0 0.0
2015-Apr-25 17:27N 26°05' W 080°07'0 0.0
2015-Apr-25 16:27N 26°05' W 080°07'0 0.0
2015-Apr-25 15:30N 26°05' W 080°07'0 0.0
2015-Apr-25 14:30N 26°05' W 080°07'0 0.0
2015-Apr-25 13:33N 26°05' W 080°07'0 0.0
2015-Apr-25 12:33N 26°05' W 080°07'0 0.0
2015-Apr-25 11:33N 26°05' W 080°07'0 0.0
2015-Apr-25 10:33N 26°05' W 080°07'2 2.1
2015-Apr-25 09:33N 26°06' W 080°05'1212.5
2015-Apr-25 08:33N 26°07' W 079°51'1514.8
2015-Apr-25 07:33N 26°09' W 079°35'3120.0
2015-Apr-25 06:00N 26°06' W 079°00'   100 / 91015.0 5.4 1.025.323.529.0

Dump ship's entire track history